Time;durP1;ratioP1;P1;durP2;ratioP2;P2;SDS_P1;SDS_P2;PMS_P1;PMS_P2;Temp;Humidity;BMP_temperature;BMP_pressure;BME280_temperature;BME280_humidity;BME280_pressure;Samples;Min_cycle;Max_cycle;Signal;HPM_P1;HPM_P2
2021/07/23 00:00:05;;;;;;;4.47;2.63;;;;;;;23.53;50.70;101999.09;5012409;28;20601;-60
2021/07/23 00:02:30;;;;;;;3.95;2.30;;;;;;;23.52;50.23;101989.44;5010854;28;20267;-60
2021/07/23 00:04:56;;;;;;;5.28;2.90;;;;;;;23.50;50.47;101990.56;5012257;28;20116;-60
2021/07/23 00:07:21;;;;;;;3.90;2.40;;;;;;;23.51;50.50;101992.22;5013130;28;20049;-61
2021/07/23 00:09:49;;;;;;;4.30;2.60;;;;;;;23.51;50.29;101984.25;5015566;28;20275;-61
2021/07/23 00:12:14;;;;;;;4.38;2.50;;;;;;;23.50;50.19;101982.56;5016017;28;20636;-60
2021/07/23 00:14:39;;;;;;;4.38;2.55;;;;;;;23.50;50.64;101982.56;5016104;28;20033;-60
2021/07/23 00:17:04;;;;;;;4.15;2.50;;;;;;;23.50;50.49;101982.56;5015522;28;20037;-60
2021/07/23 00:19:30;;;;;;;4.63;2.42;;;;;;;23.49;50.19;101975.56;5015826;28;20049;-61
2021/07/23 00:21:57;;;;;;;4.43;2.67;;;;;;;23.48;50.34;101977.38;5015992;28;20512;-60
2021/07/23 00:24:23;;;;;;;4.75;2.85;;;;;;;23.48;50.34;101977.38;5015042;28;20022;-60
2021/07/23 00:26:52;;;;;;;4.35;2.60;;;;;;;23.47;50.25;101983.66;5015990;28;20493;-59
2021/07/23 00:29:19;;;;;;;4.63;2.75;;;;;;;23.47;50.55;101981.00;5015553;28;20026;-61
2021/07/23 00:31:44;;;;;;;4.43;2.70;;;;;;;23.47;50.29;101977.53;5015281;28;20025;-61
2021/07/23 00:34:09;;;;;;;4.10;2.35;;;;;;;23.47;50.20;101975.69;5015702;28;20036;-59
2021/07/23 00:36:34;;;;;;;4.60;2.80;;;;;;;23.46;50.51;101981.97;5014700;28;20389;-60
2021/07/23 00:39:00;;;;;;;5.47;2.80;;;;;;;23.46;50.45;101976.66;5015739;28;20425;-61
2021/07/23 00:41:25;;;;;;;4.97;2.60;;;;;;;23.44;50.43;101978.63;5015574;28;20112;-60
2021/07/23 00:43:50;;;;;;;4.10;2.60;;;;;;;23.45;50.01;101975.00;5014805;28;20278;-60
2021/07/23 00:46:15;;;;;;;4.60;2.83;;;;;;;23.45;50.60;101975.00;5015276;28;20329;-61
2021/07/23 00:48:49;;;;;;;4.68;2.63;;;;;;;23.45;50.52;101976.78;5015505;28;20751;-62
2021/07/23 00:51:14;;;;;;;;;;;;;;;23.44;50.13;101969.81;5015008;28;20042;-60
2021/07/23 00:53:52;;;;;;;4.27;2.50;;;;;;;23.44;50.35;101969.81;5015243;28;19913;-61
2021/07/23 00:56:18;;;;;;;3.90;2.40;;;;;;;23.43;50.49;101966.31;5015176;28;20157;-60
2021/07/23 00:58:43;;;;;;;4.47;2.75;;;;;;;23.42;50.16;101964.63;5014742;28;20046;-60
2021/07/23 01:01:09;;;;;;;4.35;2.28;;;;;;;23.40;50.50;101955.94;5015340;28;20136;-61
2021/07/23 01:03:36;;;;;;;3.80;2.50;;;;;;;23.42;50.38;101972.59;5014830;28;20053;-60
2021/07/23 01:06:02;;;;;;;4.63;2.58;;;;;;;23.39;50.45;101962.22;5014878;28;20088;-63
2021/07/23 01:08:28;;;;;;;4.57;2.78;;;;;;;23.41;50.10;101962.09;5015384;28;20089;-60
2021/07/23 01:10:53;;;;;;;4.10;2.30;;;;;;;23.40;50.03;101966.56;5015437;28;20435;-60
2021/07/23 01:13:19;;;;;;;3.75;2.38;;;;;;;23.38;49.99;101957.88;5013944;28;20026;-61
2021/07/23 01:15:50;;;;;;;3.97;2.50;;;;;;;23.39;50.12;101950.75;5015096;28;20093;-59
2021/07/23 01:18:15;;;;;;;3.97;2.50;;;;;;;23.35;49.89;101955.47;5013966;28;20092;-60
2021/07/23 01:20:43;;;;;;;3.80;2.40;;;;;;;23.38;50.47;101954.38;5014298;28;20425;-61
2021/07/23 01:23:10;;;;;;;3.90;2.40;;;;;;;23.36;50.35;101957.16;5015043;28;20267;-60
2021/07/23 01:25:36;;;;;;;4.75;2.50;;;;;;;23.37;49.74;101961.53;5014322;28;20049;-60
2021/07/23 01:28:08;;;;;;;3.78;2.42;;;;;;;23.38;49.98;101963.19;5014569;28;20026;-60
2021/07/23 01:30:36;;;;;;;3.90;2.47;;;;;;;23.36;49.98;101965.13;5014288;28;20477;-60
2021/07/23 01:33:04;;;;;;;4.18;2.33;;;;;;;23.37;49.85;101961.53;5014086;28;20060;-60
2021/07/23 01:35:29;;;;;;;3.83;2.40;;;;;;;23.35;50.26;101959.00;5014555;28;20025;-60
2021/07/23 01:37:57;;;;;;;4.07;2.60;;;;;;;23.34;49.92;101959.94;5014579;28;20029;-60
2021/07/23 01:40:22;;;;;;;3.90;2.40;;;;;;;23.35;50.00;101966.09;5013448;28;20434;-60
2021/07/23 01:42:47;;;;;;;4.82;2.63;;;;;;;23.31;49.82;101957.56;5014299;28;20033;-61
2021/07/23 01:45:13;;;;;;;4.38;2.47;;;;;;;23.34;49.86;101954.63;5014088;28;20037;-61
2021/07/23 01:47:38;;;;;;;4.43;2.63;;;;;;;23.33;50.17;101950.28;5013214;28;20030;-60
2021/07/23 01:50:04;;;;;;;4.28;2.50;;;;;;;23.32;49.87;101953.06;5014272;28;20092;-61
2021/07/23 01:52:29;;;;;;;4.25;2.38;;;;;;;23.31;49.80;101946.09;5013924;28;20105;-60
2021/07/23 01:54:55;;;;;;;4.05;2.40;;;;;;;23.33;50.15;101955.59;5013613;28;20074;-60
2021/07/23 01:57:20;;;;;;;4.00;2.55;;;;;;;23.31;50.10;101949.56;5013851;28;20050;-61
2021/07/23 01:59:46;;;;;;;4.07;2.50;;;;;;;23.32;50.04;101953.06;5013878;28;20076;-60
2021/07/23 02:02:11;;;;;;;4.72;2.58;;;;;;;23.32;50.22;101953.94;5012845;28;20053;-60
2021/07/23 02:04:39;;;;;;;4.20;2.40;;;;;;;23.31;49.77;101951.41;5013120;28;20107;-60
2021/07/23 02:07:05;;;;;;;4.60;2.67;;;;;;;23.30;49.57;101945.22;5013769;28;20295;-60
2021/07/23 02:09:30;;;;;;;4.00;2.47;;;;;;;23.30;49.71;101950.53;5012451;28;20488;-60
2021/07/23 02:11:56;;;;;;;3.40;2.17;;;;;;;23.30;49.70;101942.56;5013358;28;20072;-60
2021/07/23 02:14:21;;;;;;;4.63;2.25;;;;;;;23.28;50.08;101943.69;5013471;28;20370;-59
2021/07/23 02:16:47;;;;;;;4.47;2.33;;;;;;;23.27;50.05;101942.81;5012915;28;20065;-61
2021/07/23 02:19:21;;;;;;;3.58;2.38;;;;;;;23.29;49.97;101942.69;5013963;28;20029;-61
2021/07/23 02:21:47;;;;;;;4.07;2.42;;;;;;;23.26;49.61;101938.50;5013936;28;20053;-60
2021/07/23 02:24:12;;;;;;;3.85;2.45;;;;;;;23.28;49.65;101933.06;5012627;28;20072;-61
2021/07/23 02:26:37;;;;;;;4.22;2.40;;;;;;;23.26;49.50;101935.84;5013357;28;20441;-61
2021/07/23 02:29:02;;;;;;;3.40;2.10;;;;;;;23.25;49.50;101935.97;5012504;28;20032;-61
2021/07/23 02:31:28;;;;;;;4.15;2.42;;;;;;;23.27;49.87;101939.34;5012898;28;20029;-60
2021/07/23 02:33:53;;;;;;;5.00;2.33;;;;;;;23.26;50.04;101935.00;5013600;28;20044;-60
2021/07/23 02:36:18;;;;;;;3.63;2.03;;;;;;;23.22;49.61;101936.22;5012531;28;20026;-59
2021/07/23 02:38:44;;;;;;;3.60;2.20;;;;;;;23.26;49.92;101941.16;5013335;28;20053;-60
2021/07/23 02:41:09;;;;;;;4.70;2.33;;;;;;;23.25;49.68;101942.13;5013315;28;20028;-60
2021/07/23 02:43:35;;;;;;;4.07;2.42;;;;;;;23.25;49.87;101935.97;5012595;28;20029;-61
2021/07/23 02:46:00;;;;;;;3.80;2.30;;;;;;;23.24;49.58;101939.59;5013413;28;20022;-60
2021/07/23 02:48:28;;;;;;;4.47;2.60;;;;;;;23.21;49.53;101935.41;5013112;28;20080;-60
2021/07/23 02:50:54;;;;;;;3.90;2.20;;;;;;;23.23;49.84;101933.44;5012373;28;20513;-60
2021/07/23 02:53:19;;;;;;;4.57;2.35;;;;;;;23.23;49.97;101932.63;5012804;28;20042;-59
2021/07/23 02:55:45;;;;;;;3.53;2.43;;;;;;;23.23;49.73;101925.47;5013297;28;20026;-60
2021/07/23 02:58:11;;;;;;;3.92;2.40;;;;;;;23.20;49.84;101922.25;5012309;28;20259;-61
2021/07/23 03:00:36;;;;;;;3.92;2.30;;;;;;;23.22;49.56;101918.44;5013121;28;20026;-60
2021/07/23 03:03:03;;;;;;;4.13;2.40;;;;;;;23.22;49.78;101926.44;5013169;28;20022;-59
2021/07/23 03:05:29;;;;;;;4.38;2.58;;;;;;;23.20;49.66;101924.91;5012092;28;20041;-60
2021/07/23 03:07:54;;;;;;;4.53;2.58;;;;;;;23.20;49.77;101925.72;5013179;28;20083;-60
2021/07/23 03:10:19;;;;;;;4.50;2.50;;;;;;;23.20;49.53;101922.25;5012782;28;20474;-59
2021/07/23 03:12:45;;;;;;;3.83;2.15;;;;;;;23.20;49.47;101923.06;5011660;28;20077;-60
2021/07/23 03:15:13;;;;;;;3.80;2.30;;;;;;;23.17;49.83;101921.50;5013110;28;20045;-60
2021/07/23 03:17:38;;;;;;;4.13;2.40;;;;;;;23.18;49.70;101917.88;5012659;28;20115;-60
2021/07/23 03:20:05;;;;;;;3.85;2.28;;;;;;;23.19;49.30;101916.06;5012208;28;20057;-61
2021/07/23 03:22:30;;;;;;;3.97;2.38;;;;;;;23.18;49.47;101915.22;5012316;28;20022;-60
2021/07/23 03:24:57;;;;;;;4.25;2.45;;;;;;;23.19;49.79;101910.75;5012865;28;20025;-61
2021/07/23 03:27:22;;;;;;;5.38;2.53;;;;;;;23.17;49.48;101910.88;5011537;28;20103;-60
2021/07/23 03:29:48;;;;;;;4.30;2.50;;;;;;;23.16;49.30;101906.53;5012889;28;20034;-61
2021/07/23 03:32:13;;;;;;;3.67;2.20;;;;;;;23.16;49.48;101909.22;5012058;28;20026;-61
2021/07/23 03:34:41;;;;;;;5.53;2.60;;;;;;;23.15;49.33;101904.84;5012245;28;20092;-61
2021/07/23 03:37:06;;;;;;;4.35;2.55;;;;;;;23.15;49.42;101901.38;5012892;28;20037;-61
2021/07/23 03:39:33;;;;;;;3.80;2.40;;;;;;;23.15;49.58;101906.69;5011754;28;20348;-60
2021/07/23 03:42:00;;;;;;;4.00;2.47;;;;;;;23.16;49.60;101903.03;5012372;28;20271;-61
2021/07/23 03:44:25;;;;;;;3.65;2.20;;;;;;;23.15;49.61;101898.69;5012593;28;20025;-60
2021/07/23 03:46:51;;;;;;;4.07;2.47;;;;;;;23.13;49.60;101897.97;5011830;28;20501;-60
2021/07/23 03:49:19;;;;;;;4.77;2.73;;;;;;;23.14;49.48;101900.50;5011816;28;20054;-61
2021/07/23 03:51:47;;;;;;;4.15;2.45;;;;;;;23.13;49.55;101893.50;5012476;28;20298;-60
2021/07/23 03:54:12;;;;;;;4.70;2.72;;;;;;;23.14;49.27;101894.34;5011573;28;20026;-61
2021/07/23 03:56:38;;;;;;;4.53;2.50;;;;;;;23.12;49.22;101902.44;5012117;28;20036;-61
2021/07/23 03:59:04;;;;;;;4.07;2.42;;;;;;;23.12;49.25;101898.97;5012533;28;20275;-60
2021/07/23 04:01:29;;;;;;;3.65;2.20;;;;;;;23.12;49.37;101904.28;5011797;28;20088;-61
2021/07/23 04:03:54;;;;;;;4.00;2.30;;;;;;;23.12;49.33;101904.28;5012784;28;20026;-64
2021/07/23 04:06:20;;;;;;;4.47;2.50;;;;;;;23.03;49.58;101881.94;5012257;28;20540;-60
2021/07/23 04:08:45;;;;;;;5.27;2.43;;;;;;;23.10;49.43;101896.44;5011869;28;20410;-60
2021/07/23 04:11:14;;;;;;;4.67;2.70;;;;;;;23.07;49.55;101888.69;5012340;28;20276;-61
2021/07/23 04:13:40;;;;;;;3.95;2.38;;;;;;;23.10;49.20;101899.09;5012616;28;20295;-60
2021/07/23 04:16:05;;;;;;;3.72;2.20;;;;;;;23.11;49.39;101894.59;5011688;28;20433;-60
2021/07/23 04:18:31;;;;;;;4.00;2.30;;;;;;;23.09;49.39;101897.41;5011942;28;20132;-60
2021/07/23 04:20:56;;;;;;;3.90;2.28;;;;;;;23.09;49.18;101897.41;5012095;28;20259;-60
2021/07/23 04:23:21;;;;;;;4.17;2.33;;;;;;;23.07;49.48;101896.66;5010922;28;20436;-60
2021/07/23 04:25:49;;;;;;;4.30;2.60;;;;;;;23.04;49.39;101880.97;5011971;28;20268;-60
2021/07/23 04:28:15;;;;;;;3.60;2.20;;;;;;;23.09;49.06;101888.59;5011652;28;20711;-61
2021/07/23 04:30:40;;;;;;;4.20;2.58;;;;;;;23.07;49.16;101895.84;5011331;28;20022;-60
2021/07/23 04:33:05;;;;;;;5.22;2.50;;;;;;;23.07;49.18;101890.53;5011849;28;20057;-60
2021/07/23 04:35:30;;;;;;;5.10;2.40;;;;;;;23.09;49.49;101894.75;5011125;28;20034;-60
2021/07/23 04:37:56;;;;;;;4.60;2.27;;;;;;;23.08;49.39;101887.75;5011655;28;20275;-60
2021/07/23 04:40:24;;;;;;;4.60;2.60;;;;;;;23.09;49.40;101899.22;5011555;28;20282;-61
2021/07/23 04:42:49;;;;;;;3.95;2.63;;;;;;;23.07;49.22;101896.66;5011244;28;20647;-60
2021/07/23 04:45:14;;;;;;;4.00;2.30;;;;;;;23.07;49.14;101896.66;5011653;28;20022;-61
2021/07/23 04:47:40;;;;;;;4.57;2.30;;;;;;;23.08;49.43;101897.53;5012092;28;20267;-60
2021/07/23 04:50:05;;;;;;;4.90;2.30;;;;;;;23.07;49.41;101899.31;5010881;28;20054;-60
2021/07/23 04:52:31;;;;;;;4.30;2.60;;;;;;;23.08;49.43;101897.53;5011257;28;20109;-60
2021/07/23 04:54:56;;;;;;;3.80;2.20;;;;;;;23.04;49.17;101890.78;5015267;28;20026;-60
2021/07/23 04:57:28;;;;;;;3.45;2.05;;;;;;;23.06;49.28;101896.78;5014189;28;20283;-60
2021/07/23 04:59:53;;;;;;;4.07;2.58;;;;;;;23.05;49.53;101888.00;5015223;28;20480;-60
2021/07/23 05:02:18;;;;;;;3.90;2.28;;;;;;;23.06;49.45;101884.34;5014877;28;20033;-60
2021/07/23 05:04:44;;;;;;;3.80;2.10;;;;;;;23.03;49.43;101889.91;5014347;28;20100;-59
2021/07/23 05:07:09;;;;;;;3.58;2.17;;;;;;;23.05;49.01;101887.13;5015001;28;20359;-58
2021/07/23 05:09:34;;;;;;;4.30;2.38;;;;;;;23.06;49.45;101892.31;5014726;28;20057;-60
2021/07/23 05:12:01;;;;;;;4.37;2.30;;;;;;;23.05;49.40;101893.31;5014466;28;20025;-60
2021/07/23 05:14:28;;;;;;;3.72;2.25;;;;;;;23.05;49.27;101895.97;5014724;28;20326;-60
2021/07/23 05:16:53;;;;;;;3.67;2.25;;;;;;;23.03;49.50;101891.75;5015162;28;20101;-59
2021/07/23 05:19:25;;;;;;;4.10;2.40;;;;;;;23.05;49.10;101895.97;5013885;28;20104;-59
2021/07/23 05:21:50;;;;;;;4.18;2.08;;;;;;;23.04;49.10;101886.28;5014621;28;20765;-59
2021/07/23 05:24:16;;;;;;;4.37;2.40;;;;;;;23.04;49.07;101888.94;5014706;28;20026;-60
2021/07/23 05:26:41;;;;;;;4.57;2.60;;;;;;;23.05;49.27;101889.78;5013854;28;20624;-60
2021/07/23 05:29:08;;;;;;;3.58;2.08;;;;;;;23.04;49.40;101894.28;5014887;28;20026;-59
2021/07/23 05:31:35;;;;;;;3.72;2.20;;;;;;;23.06;49.35;101896.78;5014438;28;20018;-59
2021/07/23 05:34:03;;;;;;;4.05;2.40;;;;;;;23.05;49.26;101895.09;5013734;28;20044;-59
2021/07/23 05:36:35;;;;;;;3.65;2.03;;;;;;;23.05;49.33;101885.34;5014153;28;20049;-60
2021/07/23 05:39:01;;;;;;;3.72;2.35;;;;;;;23.03;49.18;101881.94;5013974;28;20175;-59
2021/07/23 05:41:26;;;;;;;4.07;2.00;;;;;;;23.05;49.47;101881.81;5014168;28;20154;-60
2021/07/23 05:43:54;;;;;;;4.10;2.28;;;;;;;23.06;49.53;101875.53;5014671;28;20029;-59
2021/07/23 05:46:20;;;;;;;4.13;2.22;;;;;;;23.05;49.15;101882.69;5013214;28;20041;-59
2021/07/23 05:48:45;;;;;;;5.03;2.30;;;;;;;23.06;49.20;101868.38;5014184;28;20026;-60
2021/07/23 05:51:12;;;;;;;3.55;2.20;;;;;;;23.03;49.43;101866.00;5014102;28;20052;-61
2021/07/23 05:53:38;;;;;;;3.67;2.22;;;;;;;23.04;49.14;101867.69;5013197;28;20419;-62
2021/07/23 05:56:04;;;;;;;4.07;2.40;;;;;;;23.06;49.41;101880.84;5014162;28;20022;-62
2021/07/23 05:58:30;;;;;;;4.38;2.40;;;;;;;23.07;49.32;101874.56;5013539;28;20022;-60
2021/07/23 06:00:58;;;;;;;4.65;1.98;;;;;;;23.06;49.30;101878.19;5013265;28;20022;-61
2021/07/23 06:03:24;;;;;;;3.72;2.13;;;;;;;23.05;49.61;101876.50;5013512;28;20029;-61
2021/07/23 06:05:49;;;;;;;4.00;2.10;;;;;;;23.07;49.21;101886.03;5013987;28;20030;-62
2021/07/23 06:08:15;;;;;;;3.42;2.10;;;;;;;23.06;49.49;101876.38;5012897;28;20029;-60
2021/07/23 06:10:40;;;;;;;3.90;2.20;;;;;;;23.07;49.47;101882.53;5013872;28;20430;-60
2021/07/23 06:13:06;;;;;;;3.47;2.10;;;;;;;23.08;49.12;101885.09;5013687;28;20034;-60
2021/07/23 06:15:31;;;;;;;4.03;2.57;;;;;;;23.06;49.40;101879.03;5012664;28;20033;-60
2021/07/23 06:17:58;;;;;;;3.45;2.08;;;;;;;23.05;49.48;101874.69;5013621;28;20264;-61
2021/07/23 06:20:26;;;;;;;3.70;2.08;;;;;;;23.07;49.60;101875.41;5013229;28;20149;-60
2021/07/23 06:22:57;;;;;;;3.80;2.10;;;;;;;23.06;49.61;101870.22;5012882;28;20030;-60
2021/07/23 06:25:24;;;;;;;3.50;1.92;;;;;;;23.06;49.35;101868.38;5012474;28;20041;-61
2021/07/23 06:27:53;;;;;;;4.18;2.35;;;;;;;23.08;49.72;101881.56;5013429;28;20482;-61
2021/07/23 06:30:21;;;;;;;4.45;3.08;;;;;;;23.07;49.54;101879.88;5012515;28;20029;-62
2021/07/23 06:32:46;;;;;;;5.47;2.90;;;;;;;23.01;48.49;101878.59;5013339;28;20496;-61
2021/07/23 06:35:11;;;;;;;5.28;2.88;;;;;;;22.98;48.13;101881.50;5012763;28;20025;-62
2021/07/23 06:37:37;;;;;;;4.18;2.88;;;;;;;22.93;48.17;101876.59;5012964;28;20038;-62
2021/07/23 06:40:03;;;;;;;4.85;3.10;;;;;;;22.92;48.35;101871.38;5013253;28;20083;-60
2021/07/23 06:42:28;;;;;;;5.38;3.22;;;;;;;22.91;48.17;101877.72;5012140;28;20026;-62
2021/07/23 06:44:54;;;;;;;6.22;2.90;;;;;;;22.90;47.75;101876.00;5013076;28;20033;-61
2021/07/23 06:47:20;;;;;;;6.20;3.17;;;;;;;22.87;47.56;101885.06;5012749;28;20072;-61
2021/07/23 06:49:46;;;;;;;5.35;2.47;;;;;;;22.85;47.42;101879.06;5012477;28;20076;-62
2021/07/23 06:52:11;;;;;;;5.90;2.80;;;;;;;22.86;47.50;101878.09;5013181;28;20041;-62
2021/07/23 06:54:37;;;;;;;5.18;2.97;;;;;;;22.86;47.29;101886.06;5012715;28;20490;-66
2021/07/23 06:57:04;;;;;;;6.78;2.75;;;;;;;22.77;47.01;101871.72;5012370;28;20029;-60
2021/07/23 06:59:33;;;;;;;6.78;2.70;;;;;;;22.86;47.25;101890.53;5012623;28;20413;-62
2021/07/23 07:01:59;;;;;;;4.43;2.50;;;;;;;22.84;47.02;101885.34;5012935;28;20818;-63
2021/07/23 07:04:25;;;;;;;5.75;2.53;;;;;;;22.83;47.35;101881.84;5011985;28;20062;-63
2021/07/23 07:06:56;;;;;;;5.35;2.70;;;;;;;22.86;47.54;101883.41;5013204;28;20109;-63
2021/07/23 07:09:23;;;;;;;4.85;2.53;;;;;;;22.86;47.43;101888.72;5012762;28;20037;-60
2021/07/23 07:11:51;;;;;;;7.07;2.80;;;;;;;22.84;47.26;101882.69;5012215;28;20022;-62
2021/07/23 07:14:18;;;;;;;4.60;2.65;;;;;;;22.86;47.25;101890.53;5012459;28;20033;-64
2021/07/23 07:16:43;;;;;;;5.13;2.42;;;;;;;22.86;47.31;101891.38;5012168;28;20034;-63
2021/07/23 07:19:08;;;;;;;6.03;2.80;;;;;;;22.87;46.98;101886.91;5012115;28;20034;-62
2021/07/23 07:21:33;;;;;;;5.40;2.72;;;;;;;22.87;47.05;101886.91;5012363;28;20285;-62
2021/07/23 07:24:00;;;;;;;5.67;2.80;;;;;;;22.86;46.81;101886.06;5012753;28;20026;-61
2021/07/23 07:26:28;;;;;;;4.05;2.47;;;;;;;22.87;47.22;101892.22;5011588;28;20259;-62
2021/07/23 07:28:56;;;;;;;6.18;2.80;;;;;;;22.87;47.15;101887.72;5012461;28;20107;-61
2021/07/23 07:31:22;;;;;;;4.70;2.80;;;;;;;22.86;46.94;101888.72;5011594;28;20032;-60
2021/07/23 07:33:47;;;;;;;7.90;2.95;;;;;;;22.88;47.03;101892.09;5012891;28;20034;-63
2021/07/23 07:36:17;;;;;;;8.60;3.13;;;;;;;22.89;46.95;101890.25;5013053;28;20064;-61
2021/07/23 07:38:43;;;;;;;7.40;2.80;;;;;;;22.88;47.75;101885.94;5012185;28;20026;-63
2021/07/23 07:41:08;;;;;;;6.32;2.80;;;;;;;22.91;47.53;101894.47;5012993;28;20021;-63
2021/07/23 07:43:34;;;;;;;5.32;2.88;;;;;;;22.94;47.53;101888.03;5012184;28;20079;-62
2021/07/23 07:45:59;;;;;;;8.65;2.80;;;;;;;22.92;47.66;101892.66;5011683;28;20068;-64
2021/07/23 07:48:24;;;;;;;5.53;2.67;;;;;;;22.94;47.71;101888.03;5012365;28;20038;-63
2021/07/23 07:50:50;;;;;;;4.60;2.50;;;;;;;22.95;47.64;101881.75;5012330;28;20046;-62
2021/07/23 07:53:15;;;;;;;6.47;2.55;;;;;;;22.95;47.10;101881.75;5011052;28;20486;-61
2021/07/23 07:55:41;;;;;;;5.40;2.70;;;;;;;22.97;47.14;101885.13;5012355;28;20038;-63
2021/07/23 07:58:06;;;;;;;5.80;2.35;;;;;;;22.96;47.11;101884.28;5012284;28;20751;-63
2021/07/23 08:00:31;;;;;;;4.93;2.38;;;;;;;22.98;47.02;101881.50;5011707;28;20030;-60
2021/07/23 08:02:56;;;;;;;6.13;2.57;;;;;;;22.99;47.49;101877.88;5012219;28;20041;-62
2021/07/23 08:05:22;;;;;;;4.27;2.23;;;;;;;23.00;47.02;101877.75;5012021;28;20391;-61
2021/07/23 08:07:48;;;;;;;3.97;2.35;;;;;;;23.01;47.24;101875.91;5011505;28;20275;-62
2021/07/23 08:10:19;;;;;;;4.57;2.67;;;;;;;23.02;47.06;101872.31;5012755;28;20113;-62
2021/07/23 08:12:44;;;;;;;4.53;2.28;;;;;;;23.02;47.15;101869.66;5012249;28;20109;-62
2021/07/23 08:15:11;;;;;;;4.93;2.40;;;;;;;23.01;47.38;101865.28;5011432;28;20101;-61
2021/07/23 08:17:36;;;;;;;4.97;2.20;;;;;;;23.05;47.07;101869.38;5011914;28;20049;-62
2021/07/23 08:20:02;;;;;;;5.13;2.58;;;;;;;23.06;47.10;101865.72;5012085;28;20033;-65
2021/07/23 08:22:29;;;;;;;5.18;2.63;;;;;;;23.09;47.23;101869.97;5011493;28;20053;-61
2021/07/23 08:24:55;;;;;;;5.60;2.60;;;;;;;23.13;47.09;101863.41;5012101;28;20504;-62
2021/07/23 08:27:21;;;;;;;4.00;2.33;;;;;;;23.10;47.01;101859.22;5012016;28;20105;-61
2021/07/23 08:29:46;;;;;;;4.13;2.30;;;;;;;23.12;47.01;101865.22;5015004;28;20026;-63
2021/07/23 08:32:15;;;;;;;4.53;2.30;;;;;;;23.13;46.91;101864.28;5016237;28;20091;-63
2021/07/23 08:34:46;;;;;;;5.72;2.80;;;;;;;23.12;46.88;101861.75;5015851;28;20482;-63
2021/07/23 08:37:12;;;;;;;4.43;2.75;;;;;;;23.11;46.90;101852.91;5017736;28;20030;-61
2021/07/23 08:39:37;;;;;;;5.50;2.72;;;;;;;23.11;46.81;101844.09;5015895;28;20029;-61
2021/07/23 08:42:26;;;;;;;4.17;2.17;;;;;;;23.11;46.71;101841.44;5014897;28;20044;-63
2021/07/23 08:44:52;;;;;;;4.80;2.65;;;;;;;23.09;46.87;101838.91;5015751;28;20363;-62
2021/07/23 08:47:18;;;;;;;5.30;2.42;;;;;;;23.09;46.56;101840.75;5015675;28;20065;-62
2021/07/23 08:49:43;;;;;;;5.80;2.45;;;;;;;23.09;46.64;101833.59;5014746;28;20038;-63
2021/07/23 08:52:09;;;;;;;4.40;2.10;;;;;;;23.10;46.62;101845.91;5015429;28;20038;-60
2021/07/23 08:54:37;;;;;;;5.07;2.63;;;;;;;23.09;46.62;101838.91;5015472;28;20034;-60
2021/07/23 08:57:03;;;;;;;3.70;1.92;;;;;;;23.09;46.90;101830.94;5014976;28;20022;-61
2021/07/23 08:59:30;;;;;;;4.53;2.58;;;;;;;23.07;46.66;101830.19;5015498;28;20116;-62
2021/07/23 09:01:59;;;;;;;5.05;2.90;;;;;;;22.99;46.31;101832.69;5015956;28;20033;-62
2021/07/23 09:04:37;;;;;;;6.00;3.00;;;;;;;22.85;46.26;101833.03;5015215;28;20049;-61
2021/07/23 09:07:22;;;;;;;5.50;3.00;;;;;;;22.77;46.13;101825.72;5017055;28;20029;-62
2021/07/23 09:09:56;;;;;;;5.43;2.80;;;;;;;22.73;46.19;101822.50;5016182;28;20374;-64
2021/07/23 09:12:21;;;;;;;4.38;2.10;;;;;;;22.71;45.86;101813.78;5017297;28;20049;-63
2021/07/23 09:14:46;;;;;;;4.03;2.35;;;;;;;22.67;46.14;101804.41;5016889;28;20092;-63
2021/07/23 09:17:11;;;;;;;5.30;2.53;;;;;;;22.70;46.18;101805.94;5016028;28;20103;-63
2021/07/23 09:19:40;;;;;;;5.25;3.00;;;;;;;22.65;46.48;101809.00;5017217;28;20083;-63
2021/07/23 09:22:06;;;;;;;6.28;3.28;;;;;;;22.62;46.08;101810.13;5016507;28;20025;-61
2021/07/23 09:24:51;;;;;;;5.00;2.83;;;;;;;22.58;46.39;101806.03;5015008;28;20049;-64
2021/07/23 09:27:33;;;;;;;4.30;2.30;;;;;;;22.62;46.46;101806.59;5015846;28;20026;-62
2021/07/23 09:30:01;;;;;;;3.85;2.20;;;;;;;22.69;46.33;101799.81;5016475;28;20032;-63
2021/07/23 09:32:29;;;;;;;4.47;2.30;;;;;;;22.77;46.74;101809.78;5015574;28;20084;-63
2021/07/23 09:35:08;;;;;;;4.20;2.25;;;;;;;22.86;46.76;101809.00;5015523;28;20049;-63
2021/07/23 09:37:51;;;;;;;4.47;1.92;;;;;;;22.91;46.75;101804.13;5015983;28;20022;-65
2021/07/23 09:40:16;;;;;;;4.53;1.92;;;;;;;22.95;46.72;101804.69;5015156;28;20034;-63
2021/07/23 09:42:41;;;;;;;4.20;1.93;;;;;;;23.02;46.34;101800.53;5015522;28;20030;-62
2021/07/23 09:45:07;;;;;;;4.25;2.00;;;;;;;23.06;46.71;101799.25;5014440;28;20279;-62
2021/07/23 09:47:44;;;;;;;3.40;1.95;;;;;;;23.10;46.96;101797.22;5014799;28;20382;-63
2021/07/23 09:50:09;;;;;;;5.55;2.10;;;;;;;23.12;46.69;101798.75;5015332;28;20449;-64
2021/07/23 09:52:35;;;;;;;5.07;2.30;;;;;;;23.16;46.68;101801.97;5014495;28;20081;-64
2021/07/23 09:55:06;;;;;;;3.50;1.85;;;;;;;23.17;47.02;101801.03;5015716;28;20120;-62
2021/07/23 09:57:33;;;;;;;4.25;2.15;;;;;;;23.21;46.85;101798.91;5015338;28;20085;-62
2021/07/23 10:00:05;;;;;;;4.70;2.08;;;;;;;23.22;46.79;101798.78;5013244;28;20144;-63
2021/07/23 10:02:34;;;;;;;3.78;2.05;;;;;;;23.23;46.89;101791.66;5014304;28;20030;-62
2021/07/23 10:05:04;;;;;;;5.18;2.00;;;;;;;23.25;46.79;101792.38;5014234;28;20030;-63
2021/07/23 10:07:40;;;;;;;3.35;1.90;;;;;;;23.22;46.84;101782.84;5013779;28;20033;-62
2021/07/23 10:10:15;;;;;;;4.82;2.15;;;;;;;23.24;46.76;101778.25;5014656;28;20097;-59
2021/07/23 10:12:43;;;;;;;4.90;2.20;;;;;;;23.25;46.88;101785.22;5014599;28;20036;-61
2021/07/23 10:15:10;;;;;;;3.13;1.75;;;;;;;23.26;46.93;101778.94;5013405;28;20026;-60
2021/07/23 10:17:39;;;;;;;3.42;2.13;;;;;;;23.24;46.93;101780.91;5013639;28;20029;-61
2021/07/23 10:20:05;;;;;;;3.85;2.00;;;;;;;23.26;47.38;101781.59;5014179;28;20033;-59
2021/07/23 10:22:31;;;;;;;3.55;1.98;;;;;;;23.27;47.29;101774.44;5012986;28;20465;-60
2021/07/23 10:24:57;;;;;;;5.40;2.15;;;;;;;23.28;47.57;101776.16;5013988;28;20033;-60
2021/07/23 10:27:23;;;;;;;6.40;2.50;;;;;;;23.30;47.31;101776.84;5012925;28;20470;-59
2021/07/23 10:29:53;;;;;;;4.30;2.25;;;;;;;23.30;47.46;101775.00;5014007;28;20022;-60
2021/07/23 10:32:28;;;;;;;6.82;2.00;;;;;;;23.31;47.01;101770.56;5013652;28;20446;-60
2021/07/23 10:34:59;;;;;;;4.65;2.30;;;;;;;23.34;47.32;101757.81;5013469;28;20037;-60
2021/07/23 10:37:32;;;;;;;5.15;2.03;;;;;;;23.37;47.25;101751.38;5014314;28;20057;-59
2021/07/23 10:40:10;;;;;;;5.50;2.22;;;;;;;23.39;47.70;101746.75;5013677;28;20045;-59
2021/07/23 10:42:37;;;;;;;3.75;2.05;;;;;;;23.41;47.29;101747.47;5012351;28;20470;-58
2021/07/23 10:45:12;;;;;;;5.38;2.50;;;;;;;23.43;47.66;101744.66;5013666;28;20087;-60
2021/07/23 10:47:45;;;;;;;5.38;2.42;;;;;;;23.44;47.48;101744.53;5013314;28;20029;-58
2021/07/23 10:50:14;;;;;;;4.03;1.85;;;;;;;23.46;47.58;101741.72;5012588;28;20042;-61
2021/07/23 10:52:39;;;;;;;5.97;2.20;;;;;;;23.47;47.53;101730.94;5013040;28;20060;-58
2021/07/23 10:55:43;;;;;;;3.80;1.85;;;;;;;23.49;47.40;101731.66;5013634;28;20118;-60
2021/07/23 10:58:08;;;;;;;4.95;1.98;;;;;;;23.50;47.53;101724.53;5013322;28;20033;-60
2021/07/23 11:00:48;;;;;;;5.45;2.08;;;;;;;23.49;47.42;101721.00;5013165;28;20045;-60
2021/07/23 11:03:39;;;;;;;4.00;2.10;;;;;;;23.51;47.65;101720.88;5012719;28;20029;-58
2021/07/23 11:06:27;;;;;;;5.25;2.33;;;;;;;23.48;47.99;101715.81;5013658;28;20026;-59
2021/07/23 11:08:53;;;;;;;4.50;2.20;;;;;;;23.54;48.41;101720.59;5013744;28;20542;-59
2021/07/23 11:11:21;;;;;;;7.38;2.83;;;;;;;23.53;49.02;101714.44;5012384;28;20062;-60
2021/07/23 11:13:47;;;;;;;7.28;2.67;;;;;;;23.54;49.12;101701.97;5013134;28;20109;-59
2021/07/23 11:16:17;;;;;;;6.55;2.58;;;;;;;23.56;48.62;101692.03;5013360;28;20022;-60
2021/07/23 11:18:52;;;;;;;8.88;2.92;;;;;;;23.59;48.57;101694.44;5012488;28;20105;-61
2021/07/23 11:21:18;;;;;;;6.72;2.63;;;;;;;23.57;48.85;101693.69;5012771;28;20026;-61
2021/07/23 11:23:46;;;;;;;6.82;2.53;;;;;;;23.58;49.02;101689.25;5012147;28;20171;-60